createdAt,value
2019-04-05T00:01:12.124Z,6.60
2019-04-05T00:03:40.531Z,6.50
2019-04-05T00:06:09.152Z,6.50
2019-04-05T00:08:37.779Z,6.50
2019-04-05T00:11:06.337Z,6.50
2019-04-05T00:13:34.753Z,6.50
2019-04-05T00:16:03.136Z,6.50
2019-04-05T00:18:31.532Z,6.50
2019-04-05T00:20:59.912Z,6.50
2019-04-05T00:23:28.536Z,6.40
2019-04-05T00:25:58.716Z,6.40
2019-04-05T00:28:27.352Z,6.40
2019-04-05T00:30:55.752Z,6.40
2019-04-05T00:33:24.134Z,6.40
2019-04-05T00:35:52.761Z,6.40
2019-04-05T00:38:21.145Z,6.30
2019-04-05T00:40:49.540Z,6.30
2019-04-05T00:43:17.936Z,6.30
2019-04-05T00:45:46.514Z,6.20
2019-04-05T00:48:14.892Z,6.20
2019-04-05T00:50:43.299Z,6.20
2019-04-05T00:53:11.699Z,6.30
2019-04-05T00:55:40.160Z,6.20
2019-04-05T00:58:08.566Z,6.20
2019-04-05T01:00:37.037Z,6.20
2019-04-05T01:03:05.427Z,6.20
2019-04-05T01:05:33.994Z,6.20
2019-04-05T01:08:02.371Z,6.10
2019-04-05T01:10:30.844Z,6.10
2019-04-05T01:12:59.729Z,6.10
2019-04-05T01:15:40.002Z,6.00
2019-04-05T01:17:58.248Z,6.00
2019-04-05T01:20:28.656Z,6.00
2019-04-05T01:22:58.880Z,5.90
2019-04-05T01:25:28.151Z,5.90
2019-04-05T01:27:56.629Z,5.90
2019-04-05T01:30:25.030Z,5.90
2019-04-05T01:32:53.649Z,5.90
2019-04-05T01:35:22.038Z,5.80
2019-04-05T01:37:51.108Z,5.80
2019-04-05T01:40:19.511Z,5.80
2019-04-05T01:42:48.342Z,5.80
2019-04-05T01:45:16.740Z,5.80
2019-04-05T01:47:45.144Z,5.80
2019-04-05T01:50:14.316Z,5.80
2019-04-05T01:52:42.896Z,5.80
2019-04-05T01:55:11.527Z,5.70
2019-04-05T01:57:39.918Z,5.70
2019-04-05T02:00:10.718Z,5.70
2019-04-05T02:02:39.245Z,5.70
2019-04-05T02:05:09.173Z,5.60
2019-04-05T02:07:38.523Z,5.60
2019-04-05T02:10:08.610Z,5.70
2019-04-05T02:12:37.477Z,5.60
2019-04-05T02:15:08.196Z,5.60
2019-04-05T02:17:36.943Z,5.50
2019-04-05T02:20:09.936Z,5.40
2019-04-05T02:22:38.342Z,5.40
2019-04-05T02:25:07.454Z,5.40
2019-04-05T02:27:35.917Z,5.40
2019-04-05T02:30:06.166Z,5.30
2019-04-05T02:32:34.549Z,5.30
2019-04-05T02:35:03.015Z,5.20
2019-04-05T02:37:31.422Z,5.20
2019-04-05T02:39:59.860Z,5.20
2019-04-05T02:42:29.417Z,5.30
2019-04-05T02:44:59.865Z,5.20
2019-04-05T02:47:28.910Z,5.10
2019-04-05T02:49:58.339Z,5.20
2019-04-05T02:52:28.282Z,5.10
2019-04-05T02:54:57.809Z,5.10
2019-04-05T02:57:27.145Z,5.20
2019-04-05T02:59:55.871Z,5.20
2019-04-05T03:02:25.260Z,5.20
2019-04-05T03:04:53.646Z,5.20
2019-04-05T03:07:22.113Z,5.20
2019-04-05T03:09:50.893Z,5.20
2019-04-05T03:12:19.760Z,5.20
2019-04-05T03:14:48.581Z,5.30
2019-04-05T03:17:17.414Z,5.30
2019-04-05T03:19:48.256Z,5.30
2019-04-05T03:22:16.909Z,5.20
2019-04-05T03:24:46.450Z,5.30
2019-04-05T03:27:17.914Z,5.30
2019-04-05T03:29:46.530Z,5.30
2019-04-05T03:32:15.654Z,5.30
2019-04-05T03:34:44.290Z,5.30
2019-04-05T03:37:13.621Z,5.30
2019-04-05T03:39:42.553Z,5.30
2019-04-05T03:42:11.395Z,5.30
2019-04-05T03:44:40.123Z,5.30
2019-04-05T03:47:08.997Z,5.30
2019-04-05T03:49:37.457Z,5.40
2019-04-05T03:52:06.481Z,5.40
2019-04-05T03:54:35.253Z,5.40
2019-04-05T03:57:04.379Z,5.40
2019-04-05T03:59:32.783Z,5.40
2019-04-05T04:02:01.241Z,5.40
2019-04-05T04:04:30.173Z,5.40
2019-04-05T04:06:58.705Z,5.40
2019-04-05T04:09:27.181Z,5.40
2019-04-05T04:11:55.635Z,5.40
2019-04-05T04:14:24.112Z,5.40
2019-04-05T04:16:53.236Z,5.40
2019-04-05T04:19:21.788Z,5.40
2019-04-05T04:22:07.916Z,5.40
2019-04-05T04:24:37.461Z,5.40
2019-04-05T04:27:05.850Z,5.40
2019-04-05T04:29:34.257Z,5.50
2019-04-05T04:32:02.813Z,5.40
2019-04-05T04:34:31.984Z,5.40
2019-04-05T04:37:00.543Z,5.40
2019-04-05T04:39:29.288Z,5.50
2019-04-05T04:41:58.365Z,5.40
2019-04-05T04:44:26.764Z,5.50
2019-04-05T04:46:55.157Z,5.40
2019-04-05T04:49:25.335Z,5.40
2019-04-05T04:51:55.013Z,5.40
2019-04-05T04:54:23.484Z,5.40
2019-04-05T04:56:53.468Z,5.50
2019-04-05T04:59:23.268Z,5.50
2019-04-05T05:01:51.755Z,5.50
2019-04-05T05:04:20.209Z,5.40
2019-04-05T05:06:48.761Z,5.50
2019-04-05T05:09:17.148Z,5.50
2019-04-05T05:11:45.531Z,5.40
2019-04-05T05:14:14.204Z,5.50
2019-04-05T05:16:42.651Z,5.50
2019-04-05T05:19:12.784Z,5.50
2019-04-05T05:21:41.176Z,5.50
2019-04-05T05:24:10.365Z,5.50
2019-04-05T05:26:38.915Z,5.50
2019-04-05T05:29:07.795Z,5.50
2019-04-05T05:31:36.494Z,5.50
2019-04-05T05:34:06.417Z,5.50
2019-04-05T05:36:35.651Z,5.60
2019-04-05T05:39:06.648Z,5.60
2019-04-05T05:41:35.077Z,5.50
2019-04-05T05:44:03.522Z,5.50
2019-04-05T05:46:31.992Z,5.50
2019-04-05T05:49:00.397Z,5.50
2019-04-05T05:51:29.376Z,5.50
2019-04-05T05:53:57.828Z,5.50
2019-04-05T05:56:26.318Z,5.60
2019-04-05T05:58:58.856Z,5.60
2019-04-05T06:01:24.816Z,5.60
2019-04-05T06:03:53.192Z,5.60
2019-04-05T06:06:22.891Z,5.60
2019-04-05T06:08:51.296Z,5.70
2019-04-05T06:11:19.698Z,5.70
2019-04-05T06:13:48.089Z,5.60
2019-04-05T06:16:16.483Z,5.60
2019-04-05T06:18:44.874Z,5.60
2019-04-05T06:21:13.267Z,5.70
2019-04-05T06:23:41.662Z,5.80
2019-04-05T06:26:10.083Z,5.80
2019-04-05T06:28:39.621Z,5.90
2019-04-05T06:31:08.124Z,5.80
2019-04-05T06:33:36.518Z,5.90
2019-04-05T06:36:04.908Z,5.90
2019-04-05T06:38:33.300Z,5.90
2019-04-05T06:41:01.697Z,5.90
2019-04-05T06:43:30.319Z,6.00
2019-04-05T06:45:58.831Z,6.00
2019-04-05T06:48:29.291Z,6.00
2019-04-05T06:50:57.616Z,6.00
2019-04-05T06:53:26.021Z,6.10
2019-04-05T06:55:54.400Z,6.10
2019-04-05T06:58:28.919Z,6.20
2019-04-05T07:00:57.182Z,6.20
2019-04-05T07:03:23.054Z,6.30
2019-04-05T07:05:51.431Z,6.30
2019-04-05T07:08:19.841Z,6.40
2019-04-05T07:10:48.321Z,6.50
2019-04-05T07:13:16.723Z,6.60
2019-04-05T07:15:45.132Z,6.50
2019-04-05T07:18:13.550Z,6.60
2019-04-05T07:20:41.933Z,6.70
2019-04-05T07:23:10.332Z,6.70
2019-04-05T07:25:38.734Z,6.70
2019-04-05T07:28:07.120Z,6.80
2019-04-05T07:30:35.577Z,6.90
2019-04-05T07:33:04.217Z,7.00
2019-04-05T07:35:33.952Z,7.10
2019-04-05T07:38:02.680Z,7.20
2019-04-05T07:40:31.151Z,7.40
2019-04-05T07:42:59.548Z,7.40
2019-04-05T07:45:27.940Z,7.40
2019-04-05T07:47:56.340Z,7.50
2019-04-05T07:50:24.728Z,7.60
2019-04-05T07:52:53.360Z,7.70
2019-04-05T07:55:21.761Z,7.80
2019-04-05T07:57:50.154Z,7.90
2019-04-05T08:00:47.268Z,7.90
2019-04-05T08:03:15.728Z,7.90
2019-04-05T08:05:44.761Z,8.00
2019-04-05T08:08:16.234Z,8.00
2019-04-05T08:10:45.969Z,8.00
2019-04-05T08:13:15.470Z,8.00
2019-04-05T08:15:44.030Z,8.10
2019-04-05T08:18:12.441Z,8.10
2019-04-05T08:20:40.823Z,8.20
2019-04-05T08:23:09.236Z,8.40
2019-04-05T08:25:37.641Z,8.50
2019-04-05T08:28:06.786Z,8.60
2019-04-05T08:30:35.305Z,8.70
2019-04-05T08:33:03.924Z,8.70
2019-04-05T08:35:32.316Z,8.70
2019-04-05T08:38:00.707Z,8.70
2019-04-05T08:40:29.102Z,8.80
2019-04-05T08:42:57.497Z,9.00
2019-04-05T08:45:25.889Z,9.10
2019-04-05T08:47:54.296Z,9.00
2019-04-05T08:50:22.685Z,9.10
2019-04-05T08:52:51.082Z,9.00
2019-04-05T08:55:19.478Z,9.10
2019-04-05T08:57:48.196Z,9.00
2019-04-05T09:00:17.077Z,9.10
2019-04-05T09:02:45.512Z,9.30
2019-04-05T09:05:14.014Z,9.10
2019-04-05T09:07:42.407Z,9.10
2019-04-05T09:10:10.809Z,9.30
2019-04-05T09:12:39.202Z,9.50
2019-04-05T09:15:08.036Z,9.50
2019-04-05T09:17:36.425Z,9.50
2019-04-05T09:20:05.898Z,9.70
2019-04-05T09:22:34.365Z,9.90
2019-04-05T09:25:02.817Z,10.00
2019-04-05T09:27:31.220Z,10.20
2019-04-05T09:29:59.620Z,10.20
2019-04-05T09:32:28.019Z,10.10
2019-04-05T09:34:56.423Z,10.20
2019-04-05T09:37:24.820Z,10.20
2019-04-05T09:39:53.651Z,10.20
2019-04-05T09:42:22.082Z,10.10
2019-04-05T09:44:50.482Z,10.20
2019-04-05T09:47:18.869Z,10.30
2019-04-05T09:49:47.273Z,10.30
2019-04-05T09:52:15.660Z,10.40
2019-04-05T09:54:44.069Z,10.40
2019-04-05T09:57:12.696Z,10.50
2019-04-05T09:59:41.335Z,10.60
2019-04-05T10:02:09.962Z,10.70
2019-04-05T10:04:38.371Z,11.00
2019-04-05T10:07:06.825Z,10.90
2019-04-05T10:09:35.224Z,11.00
2019-04-05T10:12:03.794Z,11.00
2019-04-05T10:14:32.192Z,11.20
2019-04-05T10:17:00.604Z,11.40
2019-04-05T10:19:29.033Z,11.50
2019-04-05T10:21:57.448Z,11.60
2019-04-05T10:24:26.049Z,11.60
2019-04-05T10:26:54.456Z,11.90
2019-04-05T10:29:23.083Z,12.20
2019-04-05T10:31:51.496Z,12.40
2019-04-05T10:34:19.903Z,12.50
2019-04-05T10:36:48.328Z,12.50
2019-04-05T10:39:16.730Z,12.60
2019-04-05T10:41:45.131Z,12.70
2019-04-05T10:44:15.294Z,12.60
2019-04-05T10:46:43.706Z,12.20
2019-04-05T10:49:14.944Z,12.10
2019-04-05T10:51:42.232Z,12.30
2019-04-05T10:54:10.617Z,12.40
2019-04-05T10:56:39.026Z,12.50
2019-04-05T10:59:07.419Z,12.40
2019-04-05T11:01:35.825Z,12.60
2019-04-05T11:04:04.219Z,12.50
2019-04-05T11:06:32.645Z,12.50
2019-04-05T11:09:01.044Z,12.60
2019-04-05T11:11:29.462Z,12.30
2019-04-05T11:13:57.884Z,12.40
2019-04-05T11:16:26.308Z,12.60
2019-04-05T11:18:54.691Z,12.50
2019-04-05T11:21:24.428Z,12.70
2019-04-05T11:23:53.625Z,12.60
2019-04-05T11:26:23.190Z,12.80
2019-04-05T11:28:51.784Z,12.80
2019-04-05T11:31:20.413Z,12.80
2019-04-05T11:33:48.968Z,12.80
2019-04-05T11:36:17.637Z,13.20
2019-04-05T11:38:49.986Z,13.10
2019-04-05T11:41:17.737Z,13.30
2019-04-05T11:43:48.065Z,13.10
2019-04-05T11:46:18.263Z,12.90
2019-04-05T11:48:47.732Z,13.10
2019-04-05T11:51:16.148Z,13.10
2019-04-05T11:53:44.559Z,13.10
2019-04-05T11:56:14.956Z,13.10
2019-04-05T11:58:44.827Z,13.10
2019-04-05T12:01:14.958Z,12.90
2019-04-05T12:03:43.361Z,12.70
2019-04-05T12:06:11.768Z,12.90
2019-04-05T12:08:40.444Z,12.80
2019-04-05T12:11:08.798Z,12.90
2019-04-05T12:13:37.794Z,12.80
2019-04-05T12:16:07.282Z,12.50
2019-04-05T12:18:36.386Z,12.20
2019-04-05T12:21:05.764Z,12.30
2019-04-05T12:23:34.280Z,12.50
2019-04-05T12:26:04.787Z,12.50
2019-04-05T12:28:33.056Z,12.60
2019-04-05T12:31:01.482Z,12.30
2019-04-05T12:33:30.138Z,11.90
2019-04-05T12:35:58.558Z,11.80
2019-04-05T12:38:33.709Z,11.40
2019-04-05T12:41:03.236Z,11.50
2019-04-05T12:43:31.895Z,11.70
2019-04-05T12:46:00.299Z,11.60
2019-04-05T12:48:28.737Z,11.70
2019-04-05T12:51:01.311Z,11.60
2019-04-05T12:53:29.542Z,11.40
2019-04-05T12:55:57.934Z,11.70
2019-04-05T12:58:26.749Z,11.90
2019-04-05T13:00:56.213Z,11.70
2019-04-05T13:03:25.509Z,11.70
2019-04-05T13:05:56.828Z,11.40
2019-04-05T13:08:24.041Z,11.50
2019-04-05T13:10:55.524Z,11.40
2019-04-05T13:13:22.598Z,11.30
2019-04-05T13:15:52.979Z,11.30
2019-04-05T13:18:21.387Z,11.40
2019-04-05T13:20:49.772Z,11.30
2019-04-05T13:23:18.180Z,11.20
2019-04-05T13:25:46.570Z,11.00
2019-04-05T13:28:18.633Z,10.90
2019-04-05T13:30:48.243Z,10.90
2019-04-05T13:33:17.093Z,10.80
2019-04-05T13:35:45.492Z,10.80
2019-04-05T13:38:13.896Z,10.80
2019-04-05T13:40:42.288Z,11.10
2019-04-05T13:43:10.705Z,11.30
2019-04-05T13:45:39.137Z,11.10
2019-04-05T13:48:09.013Z,10.90
2019-04-05T13:50:41.377Z,10.90
2019-04-05T13:53:07.476Z,10.70
2019-04-05T13:55:35.932Z,10.60
2019-04-05T13:58:04.402Z,10.50
2019-04-05T14:00:32.796Z,10.50
2019-04-05T14:03:01.428Z,10.50
2019-04-05T14:05:30.061Z,10.40
2019-04-05T14:08:09.909Z,10.30
2019-04-05T14:10:28.589Z,10.40
2019-04-05T14:12:56.997Z,10.30
2019-04-05T14:15:25.409Z,10.30
2019-04-05T14:17:53.788Z,10.30
2019-04-05T14:20:24.417Z,10.40
2019-04-05T14:22:52.443Z,10.40
2019-04-05T14:25:20.871Z,10.20
2019-04-05T14:27:49.277Z,10.20
2019-04-05T14:30:18.048Z,10.30
2019-04-05T14:32:46.445Z,10.30
2019-04-05T14:35:14.922Z,10.40
2019-04-05T14:37:43.317Z,10.50
2019-04-05T14:40:14.266Z,10.50
2019-04-05T14:42:44.891Z,10.50
2019-04-05T14:45:13.624Z,10.60
2019-04-05T14:47:42.116Z,10.70
2019-04-05T14:50:11.725Z,10.70
2019-04-05T14:52:40.125Z,10.80
2019-04-05T14:55:08.609Z,10.80
2019-04-05T14:57:37.011Z,10.80
2019-04-05T15:00:07.600Z,10.80
2019-04-05T15:02:35.207Z,10.90
2019-04-05T15:05:04.699Z,10.90
2019-04-05T15:07:33.098Z,10.90
2019-04-05T15:10:03.681Z,11.00
2019-04-05T15:12:31.622Z,11.00
2019-04-05T15:15:00.012Z,11.10
2019-04-05T15:17:28.441Z,11.10
2019-04-05T15:19:56.832Z,11.20
2019-04-05T15:22:27.577Z,11.20
2019-04-05T15:24:55.369Z,11.20
2019-04-05T15:27:23.813Z,11.20
2019-04-05T15:29:55.317Z,11.20
2019-04-05T15:32:25.471Z,11.20
2019-04-05T15:34:54.468Z,11.10
2019-04-05T15:37:22.863Z,11.10
2019-04-05T15:39:51.256Z,11.10
2019-04-05T15:42:19.666Z,11.00
2019-04-05T15:44:48.068Z,11.10
2019-04-05T15:47:16.469Z,10.90
2019-04-05T15:49:44.864Z,10.90
2019-04-05T15:52:19.128Z,10.90
2019-04-05T15:54:43.636Z,10.90
2019-04-05T15:57:12.067Z,10.80
2019-04-05T15:59:40.539Z,10.90
2019-04-05T16:02:08.951Z,10.80
2019-04-05T16:04:37.344Z,10.90
2019-04-05T16:07:05.890Z,10.80
2019-04-05T16:09:34.390Z,10.80
2019-04-05T16:12:02.818Z,10.80
2019-04-05T16:14:31.432Z,10.80
2019-04-05T16:16:59.849Z,10.80
2019-04-05T16:19:28.299Z,10.80
2019-04-05T16:21:56.688Z,10.90
2019-04-05T16:24:25.105Z,10.80
2019-04-05T16:26:53.508Z,10.70
2019-04-05T16:29:21.909Z,10.70
2019-04-05T16:31:50.565Z,10.70
2019-04-05T16:34:18.970Z,10.70
2019-04-05T16:36:47.378Z,10.70
2019-04-05T16:39:17.432Z,10.60
2019-04-05T16:41:45.844Z,10.60
2019-04-05T16:44:14.291Z,10.60
2019-04-05T16:46:42.695Z,10.60
2019-04-05T16:49:11.108Z,10.40
2019-04-05T16:51:39.510Z,10.40
2019-04-05T16:54:07.921Z,10.30
2019-04-05T16:56:36.345Z,10.40
2019-04-05T16:59:05.108Z,10.40
2019-04-05T17:01:33.524Z,10.20
2019-04-05T17:04:01.934Z,10.30
2019-04-05T17:06:30.331Z,10.20
2019-04-05T17:08:58.745Z,10.20
2019-04-05T17:11:27.131Z,10.30
2019-04-05T17:13:59.413Z,10.30
2019-04-05T17:16:25.654Z,10.30
2019-04-05T17:18:54.099Z,10.20
2019-04-05T17:21:22.519Z,10.10
2019-04-05T17:23:50.929Z,10.20
2019-04-05T17:26:19.545Z,10.20
2019-04-05T17:28:47.957Z,10.20
2019-04-05T17:31:16.397Z,10.10
2019-04-05T17:33:44.793Z,10.20
2019-04-05T17:36:13.204Z,10.10
2019-04-05T17:38:41.633Z,10.10
2019-04-05T17:41:10.049Z,10.10
2019-04-05T17:43:38.464Z,10.10
2019-04-05T17:46:06.865Z,10.00
2019-04-05T17:48:35.269Z,10.00
2019-04-05T17:51:03.677Z,10.00
2019-04-05T17:53:32.161Z,10.00
2019-04-05T17:56:01.185Z,10.00
2019-04-05T17:58:31.481Z,9.90
2019-04-05T18:01:01.160Z,9.90
2019-04-05T18:03:29.555Z,9.80
2019-04-05T18:05:57.950Z,9.80
2019-04-05T18:08:26.344Z,9.80
2019-04-05T18:10:55.006Z,9.80
2019-04-05T18:13:23.379Z,9.80
2019-04-05T18:15:53.080Z,9.70
2019-04-05T18:18:21.620Z,9.70
2019-04-05T18:20:50.019Z,9.60
2019-04-05T18:23:25.063Z,9.60
2019-04-05T18:25:48.866Z,9.50
2019-04-05T18:28:17.315Z,9.50
2019-04-05T18:30:46.456Z,9.50
2019-04-05T18:33:14.851Z,9.50
2019-04-05T18:35:43.253Z,9.40
2019-04-05T18:38:11.643Z,9.40
2019-04-05T18:40:40.625Z,9.50
2019-04-05T18:43:09.183Z,9.50
2019-04-05T18:45:37.583Z,9.40
2019-04-05T18:48:06.310Z,9.40
2019-04-05T18:50:34.699Z,9.40
2019-04-05T18:53:03.088Z,9.40
2019-04-05T18:55:32.312Z,9.40
2019-04-05T18:58:00.711Z,9.30
2019-04-05T19:00:29.127Z,9.30
2019-04-05T19:02:57.512Z,9.30
2019-04-05T19:05:25.913Z,9.30
2019-04-05T19:07:54.342Z,9.30
2019-04-05T19:10:36.439Z,9.30
2019-04-05T19:12:54.471Z,9.30
2019-04-05T19:15:22.945Z,9.30
2019-04-05T19:17:51.345Z,9.30
2019-04-05T19:20:19.763Z,9.30
2019-04-05T19:22:48.171Z,9.30
2019-04-05T19:25:16.569Z,9.30
2019-04-05T19:27:45.077Z,9.30
2019-04-05T19:50:15.912Z,9.40
2019-04-05T19:52:44.329Z,9.40
2019-04-05T19:55:12.785Z,9.30
2019-04-05T19:57:41.217Z,9.40
2019-04-05T20:00:09.685Z,9.40
2019-04-05T20:02:38.109Z,9.40
2019-04-05T20:05:08.045Z,9.30
2019-04-05T20:07:36.458Z,9.30
2019-04-05T20:10:05.881Z,9.30
2019-04-05T20:12:34.302Z,9.30
2019-04-05T20:15:02.700Z,9.30
2019-04-05T20:17:31.104Z,9.30
2019-04-05T20:19:59.487Z,9.30
2019-04-05T20:22:27.904Z,9.20
2019-04-05T20:24:56.288Z,9.20
2019-04-05T20:27:24.796Z,9.20
2019-04-05T20:29:53.232Z,9.20
2019-04-05T20:32:21.645Z,9.20
2019-04-05T20:34:50.045Z,9.20
2019-04-05T20:37:18.452Z,9.20
2019-04-05T20:39:46.839Z,9.20
2019-04-05T20:42:15.244Z,9.20
2019-04-05T20:44:43.640Z,9.30
2019-04-05T20:47:12.028Z,9.20
2019-04-05T20:49:40.504Z,9.30
2019-04-05T20:52:08.896Z,9.30
2019-04-05T20:54:37.290Z,9.30
2019-04-05T20:57:05.685Z,9.30
2019-04-05T20:59:34.085Z,9.40
2019-04-05T21:02:03.342Z,9.30
2019-04-05T21:04:31.808Z,9.30
2019-04-05T21:07:00.194Z,9.40
2019-04-05T21:09:28.585Z,9.40
2019-04-05T21:11:56.972Z,9.40
2019-04-05T21:14:25.411Z,9.40
2019-04-05T21:16:53.796Z,9.30
2019-04-05T21:19:22.192Z,9.30
2019-04-05T21:21:52.132Z,9.30
2019-04-05T21:24:20.616Z,9.30
2019-04-05T21:26:49.013Z,9.30
2019-04-05T21:29:17.640Z,9.30
2019-04-05T21:31:46.098Z,9.30
2019-04-05T21:34:14.512Z,9.20
2019-04-05T21:36:44.541Z,9.30
2019-04-05T21:39:13.180Z,9.30
2019-04-05T21:41:41.572Z,9.20
2019-04-05T21:44:10.200Z,9.20
2019-04-05T21:46:38.605Z,9.20
2019-04-05T21:49:07.004Z,9.20
2019-04-05T21:51:35.392Z,9.20
2019-04-05T21:54:03.796Z,9.10
2019-04-05T21:56:32.233Z,9.10
2019-04-05T21:59:00.682Z,9.10
2019-04-05T22:01:29.147Z,9.10
2019-04-05T22:03:57.563Z,9.10
2019-04-05T22:06:25.954Z,9.10
2019-04-05T22:08:54.344Z,9.10
2019-04-05T22:11:22.727Z,9.10
2019-04-05T22:13:51.190Z,9.10
2019-04-05T22:16:19.675Z,9.10
2019-04-05T22:18:48.086Z,9.10
2019-04-05T22:21:16.471Z,9.10
2019-04-05T22:23:44.850Z,9.10
2019-04-05T22:26:13.249Z,9.10
2019-04-05T22:28:41.629Z,9.10
2019-04-05T22:31:10.038Z,9.00
2019-04-05T22:33:38.432Z,9.00
2019-04-05T22:36:06.828Z,9.00
2019-04-05T22:38:35.220Z,9.00
2019-04-05T22:41:03.854Z,9.00
2019-04-05T22:43:32.243Z,9.00
2019-04-05T22:46:00.646Z,9.00
2019-04-05T22:48:29.120Z,9.00
2019-04-05T22:50:57.752Z,9.00
2019-04-05T22:53:26.155Z,9.10
2019-04-05T22:55:54.557Z,9.10
2019-04-05T22:58:22.976Z,9.00
2019-04-05T23:00:51.368Z,9.00
2019-04-05T23:03:19.760Z,9.00
2019-04-05T23:05:48.164Z,9.00
2019-04-05T23:08:16.548Z,9.00
2019-04-05T23:10:44.949Z,9.00
2019-04-05T23:13:13.340Z,9.00
2019-04-05T23:15:41.742Z,9.00
2019-04-05T23:18:10.147Z,8.90
2019-04-05T23:20:38.598Z,8.90
2019-04-05T23:23:06.993Z,8.90
2019-04-05T23:25:35.396Z,8.90
2019-04-05T23:28:03.770Z,8.90
2019-04-05T23:30:33.169Z,8.90
2019-04-05T23:33:01.548Z,8.90
2019-04-05T23:35:29.954Z,8.90
2019-04-05T23:37:58.364Z,8.90
2019-04-05T23:40:26.755Z,8.90
2019-04-05T23:42:55.145Z,8.90
2019-04-05T23:45:23.541Z,8.90
2019-04-05T23:47:51.920Z,8.90
2019-04-05T23:50:20.347Z,8.90
2019-04-05T23:52:48.731Z,8.90
2019-04-05T23:55:17.144Z,8.80
2019-04-05T23:57:45.523Z,8.80
